Time;durP1;ratioP1;P1;durP2;ratioP2;P2;SDS_P1;SDS_P2;PMS_P1;PMS_P2;Temp;Humidity;BMP_temperature;BMP_pressure;BME280_temperature;BME280_humidity;BME280_pressure;Samples;Min_cycle;Max_cycle;Signal;HPM_P1;HPM_P2
2023/06/14 00:00:18;;;;;;;7.60;3.70;;;;;;;;;;4864093;28;20589;-67
2023/06/14 00:02:43;;;;;;;7.28;3.78;;;;;;;;;;4878507;28;20036;-67
2023/06/14 00:05:08;;;;;;;15.13;3.67;;;;;;;;;;4864334;28;20112;-67
2023/06/14 00:07:35;;;;;;;9.23;3.53;;;;;;;;;;4865322;28;20041;-67
2023/06/14 00:10:00;;;;;;;6.70;3.45;;;;;;;;;;4863631;28;20048;-67
2023/06/14 00:12:26;;;;;;;8.25;3.65;;;;;;;;;;4866023;28;20131;-67
2023/06/14 00:14:51;;;;;;;10.02;4.07;;;;;;;;;;4879515;28;20068;-67
2023/06/14 00:17:16;;;;;;;8.10;3.78;;;;;;;;;;4863791;28;20656;-66
2023/06/14 00:19:42;;;;;;;14.55;4.32;;;;;;;;;;4863571;28;20032;-67
2023/06/14 00:22:07;;;;;;;11.23;4.22;;;;;;;;;;4863602;28;20122;-67
2023/06/14 00:24:32;;;;;;;10.60;3.80;;;;;;;;;;4878800;28;20037;-67
2023/06/14 00:27:00;;;;;;;9.75;3.70;;;;;;;;;;4875989;28;20037;-67
2023/06/14 00:29:25;;;;;;;8.02;3.65;;;;;;;;;;4863887;28;21247;-67
2023/06/14 00:31:53;;;;;;;7.43;3.70;;;;;;;;;;4865112;28;20585;-66
2023/06/14 00:34:20;;;;;;;9.00;3.83;;;;;;;;;;4865716;28;20055;-67
2023/06/14 00:36:45;;;;;;;7.00;3.70;;;;;;;;;;4864588;28;20572;-67
2023/06/14 00:39:11;;;;;;;10.07;4.20;;;;;;;;;;4860944;28;20040;-67
2023/06/14 00:41:37;;;;;;;9.75;3.55;;;;;;;;;;4863322;28;20551;-66
2023/06/14 00:44:03;;;;;;;11.55;3.78;;;;;;;;;;4862768;28;20045;-69
2023/06/14 00:46:28;;;;;;;8.27;4.05;;;;;;;;;;4864802;28;20123;-69
2023/06/14 00:48:57;;;;;;;7.32;3.80;;;;;;;;;;4862538;28;20154;-68
2023/06/14 00:51:22;;;;;;;9.55;4.00;;;;;;;;;;4864520;28;20159;-68
2023/06/14 00:53:47;;;;;;;7.75;3.80;;;;;;;;;;4864218;28;20036;-67
2023/06/14 00:56:14;;;;;;;8.13;4.03;;;;;;;;;;4864122;28;20107;-67
2023/06/14 00:58:40;;;;;;;7.22;3.83;;;;;;;;;;4878099;28;20148;-68
2023/06/14 01:01:05;;;;;;;8.82;3.85;;;;;;;;;;4864717;28;20323;-67
2023/06/14 01:03:32;;;;;;;10.18;4.05;;;;;;;;;;4864058;28;20132;-67
2023/06/14 01:06:14;;;;;;;11.20;3.67;;;;;;;;;;4863970;28;20047;-67
2023/06/14 01:08:48;;;;;;;10.25;4.30;;;;;;;;;;4876799;28;20036;-67
2023/06/14 01:11:18;;;;;;;7.00;3.90;;;;;;;;;;4864574;28;20171;-68
2023/06/14 01:13:45;;;;;;;10.73;3.83;;;;;;;;;;4867255;28;20035;-67
2023/06/14 01:16:11;;;;;;;9.18;3.80;;;;;;;;;;4867732;28;20049;-67
2023/06/14 01:18:37;;;;;;;8.48;3.75;;;;;;;;;;4865621;28;20451;-67
2023/06/14 01:21:09;;;;;;;8.13;4.05;;;;;;;;;;4865570;28;20159;-67
2023/06/14 01:23:34;;;;;;;8.02;4.28;;;;;;;;;;4866405;28;20887;-67
2023/06/14 01:26:05;;;;;;;8.77;4.65;;;;;;;;;;4881196;28;20041;-67
2023/06/14 01:28:31;;;;;;;6.70;3.63;;;;;;;;;;4867362;28;20045;-67
2023/06/14 01:31:00;;;;;;;9.02;4.20;;;;;;;;;;4866555;28;20132;-66
2023/06/14 01:33:26;;;;;;;8.98;3.63;;;;;;;;;;4866423;28;20050;-67
2023/06/14 01:35:52;;;;;;;9.73;4.30;;;;;;;;;;4880347;28;21074;-67
2023/06/14 01:38:19;;;;;;;8.77;4.28;;;;;;;;;;4866191;28;20099;-67
2023/06/14 01:40:45;;;;;;;5.65;3.60;;;;;;;;;;4865981;28;20387;-69
2023/06/14 01:43:10;;;;;;;10.80;3.42;;;;;;;;;;4865783;28;20047;-67
2023/06/14 01:45:36;;;;;;;10.77;3.83;;;;;;;;;;4865244;28;20048;-68
2023/06/14 01:48:02;;;;;;;6.10;3.90;;;;;;;;;;4866349;28;20127;-67
2023/06/14 01:50:31;;;;;;;10.65;4.03;;;;;;;;;;4863953;28;20128;-66
2023/06/14 01:52:58;;;;;;;11.93;4.20;;;;;;;;;;4867274;28;20055;-67
2023/06/14 01:55:24;;;;;;;6.75;3.78;;;;;;;;;;4930752;28;20045;-67
2023/06/14 01:57:50;;;;;;;9.60;4.20;;;;;;;;;;4867000;28;20393;-67
2023/06/14 02:00:18;;;;;;;6.95;3.70;;;;;;;;;;4866665;28;20048;-68
2023/06/14 02:02:43;;;;;;;8.30;4.15;;;;;;;;;;4864608;28;20060;-67
2023/06/14 02:05:08;;;;;;;8.95;4.13;;;;;;;;;;4880867;28;20863;-68
2023/06/14 02:07:34;;;;;;;10.13;4.63;;;;;;;;;;4867839;28;20033;-68
2023/06/14 02:09:59;;;;;;;8.15;4.30;;;;;;;;;;4866334;28;20055;-67
2023/06/14 02:12:25;;;;;;;10.63;4.43;;;;;;;;;;4866707;28;20065;-67
2023/06/14 02:14:50;;;;;;;8.90;4.15;;;;;;;;;;4866532;28;20041;-67
2023/06/14 02:17:18;;;;;;;7.60;4.40;;;;;;;;;;4866793;28;20181;-68
2023/06/14 02:19:43;;;;;;;11.32;3.85;;;;;;;;;;4865782;28;20052;-67
2023/06/14 02:22:08;;;;;;;10.68;4.00;;;;;;;;;;4865555;28;20091;-67
2023/06/14 02:24:35;;;;;;;14.38;4.32;;;;;;;;;;4865487;28;20071;-66
2023/06/14 02:27:03;;;;;;;13.02;4.07;;;;;;;;;;4867574;28;20128;-67
2023/06/14 02:29:28;;;;;;;7.50;3.97;;;;;;;;;;4866746;28;22281;-67
2023/06/14 02:31:53;;;;;;;10.48;3.50;;;;;;;;;;4865517;28;20044;-68
2023/06/14 02:34:20;;;;;;;7.25;3.58;;;;;;;;;;4865579;28;20033;-66
2023/06/14 02:36:47;;;;;;;6.57;3.50;;;;;;;;;;4866453;28;20722;-67
2023/06/14 02:39:12;;;;;;;10.75;3.70;;;;;;;;;;4865703;28;20107;-67
2023/06/14 02:41:38;;;;;;;8.35;3.70;;;;;;;;;;4864975;28;20183;-67
2023/06/14 02:44:03;;;;;;;7.47;3.60;;;;;;;;;;4863697;28;20041;-67
2023/06/14 02:46:29;;;;;;;6.93;3.45;;;;;;;;;;4866766;28;20114;-67
2023/06/14 02:48:57;;;;;;;10.05;4.00;;;;;;;;;;4863820;28;22029;-66
2023/06/14 02:51:22;;;;;;;9.27;4.03;;;;;;;;;;4866186;28;20038;-66
2023/06/14 02:53:48;;;;;;;9.18;3.80;;;;;;;;;;4864558;28;20051;-67
2023/06/14 02:56:13;;;;;;;5.65;4.03;;;;;;;;;;4867250;28;20043;-66
2023/06/14 02:58:39;;;;;;;7.93;4.30;;;;;;;;;;4879898;29;20039;-68
2023/06/14 03:01:07;;;;;;;12.13;4.10;;;;;;;;;;4866143;28;20045;-66
2023/06/14 03:03:33;;;;;;;6.55;4.00;;;;;;;;;;4878001;28;20064;-67
2023/06/14 03:06:04;;;;;;;12.30;4.05;;;;;;;;;;4866618;28;20048;-66
2023/06/14 03:08:30;;;;;;;7.88;3.50;;;;;;;;;;4866377;28;20036;-67
2023/06/14 03:10:56;;;;;;;9.88;3.58;;;;;;;;;;4865366;28;20789;-66
2023/06/14 03:13:21;;;;;;;6.55;3.50;;;;;;;;;;4864984;28;20053;-67
2023/06/14 03:15:47;;;;;;;9.82;4.25;;;;;;;;;;4879309;28;20040;-67
2023/06/14 03:18:12;;;;;;;7.13;3.63;;;;;;;;;;4864615;28;20033;-66
2023/06/14 03:20:38;;;;;;;7.43;3.88;;;;;;;;;;4865569;28;20049;-67
2023/06/14 03:23:05;;;;;;;9.20;4.10;;;;;;;;;;4879415;28;20051;-66
2023/06/14 03:25:31;;;;;;;6.70;3.78;;;;;;;;;;4864361;28;21050;-66
2023/06/14 03:27:58;;;;;;;6.20;3.80;;;;;;;;;;4865598;28;20047;-66
2023/06/14 03:30:23;;;;;;;7.53;3.80;;;;;;;;;;4864499;28;20045;-67
2023/06/14 03:32:51;;;;;;;6.75;3.70;;;;;;;;;;4866327;28;20037;-67
2023/06/14 03:35:17;;;;;;;9.07;3.60;;;;;;;;;;4862609;28;20045;-66
2023/06/14 03:37:46;;;;;;;8.70;4.15;;;;;;;;;;4864970;28;20198;-66
2023/06/14 03:40:12;;;;;;;6.13;3.70;;;;;;;;;;4865615;28;20045;-66
2023/06/14 03:42:37;;;;;;;7.05;3.70;;;;;;;;;;4865066;28;20142;-66
2023/06/14 03:45:03;;;;;;;13.18;4.47;;;;;;;;;;4877821;28;20747;-66
2023/06/14 03:47:28;;;;;;;7.40;3.92;;;;;;;;;;4878222;28;20094;-67
2023/06/14 03:49:53;;;;;;;8.10;4.10;;;;;;;;;;4864271;28;20036;-66
2023/06/14 03:52:22;;;;;;;7.10;3.58;;;;;;;;;;4880629;28;20163;-67
2023/06/14 03:54:47;;;;;;;10.75;3.95;;;;;;;;;;4865081;28;20043;-66
2023/06/14 03:57:12;;;;;;;8.30;3.75;;;;;;;;;;4862767;28;20072;-66
2023/06/14 03:59:38;;;;;;;8.05;4.03;;;;;;;;;;4865324;28;20134;-67
2023/06/14 04:02:03;;;;;;;12.68;3.97;;;;;;;;;;4865976;28;20119;-67
2023/06/14 04:04:29;;;;;;;9.40;4.18;;;;;;;;;;4861180;28;20036;-67
2023/06/14 04:06:55;;;;;;;9.07;4.30;;;;;;;;;;4864544;28;20055;-67
2023/06/14 04:09:20;;;;;;;10.18;4.00;;;;;;;;;;4861414;28;20509;-67
2023/06/14 04:11:46;;;;;;;7.97;4.25;;;;;;;;;;4864583;28;20111;-66
2023/06/14 04:14:11;;;;;;;8.27;3.95;;;;;;;;;;4863562;28;20110;-66
2023/06/14 04:16:36;;;;;;;10.18;4.45;;;;;;;;;;4863972;28;20079;-67
2023/06/14 04:19:04;;;;;;;12.05;4.43;;;;;;;;;;4854302;28;20790;-66
2023/06/14 04:21:34;;;;;;;9.63;3.90;;;;;;;;;;4862632;28;20120;-65
2023/06/14 04:24:01;;;;;;;7.63;3.95;;;;;;;;;;4863792;28;20041;-65
2023/06/14 04:26:29;;;;;;;8.93;4.00;;;;;;;;;;4878209;28;20052;-68
2023/06/14 04:28:56;;;;;;;9.15;4.10;;;;;;;;;;4863066;28;20127;-67
2023/06/14 04:31:24;;;;;;;8.48;4.32;;;;;;;;;;4864674;28;20631;-66
2023/06/14 04:33:50;;;;;;;9.35;3.58;;;;;;;;;;4924703;28;20044;-66
2023/06/14 04:36:17;;;;;;;6.97;3.70;;;;;;;;;;4865964;28;20029;-66
2023/06/14 04:38:44;;;;;;;6.95;3.90;;;;;;;;;;4864010;28;20037;-68
2023/06/14 04:41:11;;;;;;;8.38;3.80;;;;;;;;;;4863759;28;20037;-67
2023/06/14 04:43:37;;;;;;;9.70;3.80;;;;;;;;;;4863017;28;20129;-66
2023/06/14 04:46:10;;;;;;;8.45;3.92;;;;;;;;;;4879473;28;20138;-66
2023/06/14 04:48:36;;;;;;;9.82;3.88;;;;;;;;;;4865737;28;20104;-66
2023/06/14 04:51:03;;;;;;;7.97;3.22;;;;;;;;;;4881795;28;20051;-66
2023/06/14 04:53:31;;;;;;;7.55;3.40;;;;;;;;;;4864213;28;21019;-66
2023/06/14 04:55:56;;;;;;;8.63;3.63;;;;;;;;;;4866359;28;20739;-66
2023/06/14 04:58:21;;;;;;;8.90;3.47;;;;;;;;;;4865698;28;20060;-72
2023/06/14 05:00:47;;;;;;;11.02;3.88;;;;;;;;;;4867141;28;20040;-67
2023/06/14 05:03:15;;;;;;;6.95;3.45;;;;;;;;;;4868296;28;20120;-67
2023/06/14 05:05:41;;;;;;;6.20;3.67;;;;;;;;;;4867827;28;20239;-66
2023/06/14 05:08:06;;;;;;;8.43;4.10;;;;;;;;;;4867549;28;20037;-68
2023/06/14 05:10:34;;;;;;;12.45;4.57;;;;;;;;;;4863818;28;20052;-67
2023/06/14 05:13:00;;;;;;;7.38;3.83;;;;;;;;;;4864494;28;20045;-66
2023/06/14 05:15:25;;;;;;;7.35;3.67;;;;;;;;;;4864385;28;20048;-66
2023/06/14 05:17:54;;;;;;;7.35;3.08;;;;;;;;;;4879979;28;20079;-65
2023/06/14 05:20:26;;;;;;;10.68;3.33;;;;;;;;;;4862391;28;20115;-66
2023/06/14 05:22:52;;;;;;;10.48;3.33;;;;;;;;;;4864405;28;20726;-67
2023/06/14 05:25:18;;;;;;;7.70;2.90;;;;;;;;;;4879161;28;20040;-66
2023/06/14 05:27:43;;;;;;;8.13;2.63;;;;;;;;;;4861967;28;20167;-66
2023/06/14 05:30:09;;;;;;;5.32;2.80;;;;;;;;;;4864050;28;20036;-66
2023/06/14 05:32:34;;;;;;;5.63;2.70;;;;;;;;;;4861559;28;20072;-66
2023/06/14 05:35:02;;;;;;;5.25;2.70;;;;;;;;;;4863725;28;20060;-66
2023/06/14 05:37:27;;;;;;;6.13;3.00;;;;;;;;;;4863119;28;20080;-67
2023/06/14 05:39:52;;;;;;;7.03;2.83;;;;;;;;;;4860480;28;20116;-67
2023/06/14 05:42:17;;;;;;;9.23;3.33;;;;;;;;;;4875040;28;20473;-66
2023/06/14 05:44:43;;;;;;;5.25;2.65;;;;;;;;;;4860387;28;20646;-67
2023/06/14 05:47:08;;;;;;;6.05;2.63;;;;;;;;;;4861289;28;20041;-66
2023/06/14 05:49:33;;;;;;;5.20;2.70;;;;;;;;;;4860941;28;20044;-67
2023/06/14 05:51:58;;;;;;;7.93;3.38;;;;;;;;;;4879338;28;20052;-67
2023/06/14 05:54:24;;;;;;;6.80;2.67;;;;;;;;;;4863061;28;20502;-67
2023/06/14 05:56:49;;;;;;;8.25;2.47;;;;;;;;;;4876670;28;20597;-67
2023/06/14 05:59:14;;;;;;;7.70;2.60;;;;;;;;;;4863563;28;20045;-66
2023/06/14 06:01:42;;;;;;;5.90;2.70;;;;;;;;;;4861247;28;20045;-66
2023/06/14 06:04:07;;;;;;;6.18;3.00;;;;;;;;;;4861994;28;20036;-66
2023/06/14 06:06:33;;;;;;;7.50;2.78;;;;;;;;;;4863140;28;20043;-67
2023/06/14 06:08:58;;;;;;;4.82;2.70;;;;;;;;;;4879620;28;20475;-66
2023/06/14 06:11:23;;;;;;;7.03;2.92;;;;;;;;;;4863828;28;20040;-67
2023/06/14 06:13:48;;;;;;;6.50;2.60;;;;;;;;;;4863472;28;20969;-67
2023/06/14 06:16:14;;;;;;;5.97;2.95;;;;;;;;;;4879463;28;20041;-66
2023/06/14 06:18:40;;;;;;;5.47;2.53;;;;;;;;;;4880260;28;20118;-66
2023/06/14 06:21:05;;;;;;;6.85;2.50;;;;;;;;;;4879991;28;21848;-66
2023/06/14 06:23:31;;;;;;;9.02;2.70;;;;;;;;;;4864770;28;20029;-65
2023/06/14 06:25:56;;;;;;;5.38;2.40;;;;;;;;;;4864195;28;20032;-70
2023/06/14 06:28:21;;;;;;;6.15;2.40;;;;;;;;;;4877850;28;20060;-71
2023/06/14 06:30:46;;;;;;;7.07;2.67;;;;;;;;;;4858383;28;20040;-71
2023/06/14 06:33:32;;;;;;;7.45;2.90;;;;;;;;;;4853477;28;20049;-72
2023/06/14 06:35:57;;;;;;;9.55;2.47;;;;;;;;;;4866824;28;20048;-73
2023/06/14 06:38:23;;;;;;;5.32;2.70;;;;;;;;;;4866479;29;20040;-71
2023/06/14 06:40:48;;;;;;;9.70;2.67;;;;;;;;;;4867117;28;20049;-72
2023/06/14 06:43:13;;;;;;;4.70;2.65;;;;;;;;;;4866131;28;20048;-73
2023/06/14 06:45:39;;;;;;;6.68;3.03;;;;;;;;;;4866799;28;20041;-73
2023/06/14 06:48:04;;;;;;;7.55;3.03;;;;;;;;;;4866932;28;20036;-72
2023/06/14 06:50:30;;;;;;;7.00;2.63;;;;;;;;;;4866240;28;20040;-72
2023/06/14 06:52:55;;;;;;;8.52;2.50;;;;;;;;;;4866482;28;20052;-72
2023/06/14 06:55:25;;;;;;;6.60;2.50;;;;;;;;;;4865078;28;20123;-72
2023/06/14 06:57:52;;;;;;;8.50;2.78;;;;;;;;;;4866368;28;20115;-73
2023/06/14 07:00:20;;;;;;;5.30;2.50;;;;;;;;;;4866072;28;20126;-72
2023/06/14 07:02:45;;;;;;;10.73;2.83;;;;;;;;;;4865509;28;20073;-71
2023/06/14 07:05:13;;;;;;;9.60;2.33;;;;;;;;;;4864899;28;20039;-73
2023/06/14 07:07:39;;;;;;;7.07;2.58;;;;;;;;;;4866557;28;20569;-72
2023/06/14 07:10:04;;;;;;;9.95;2.45;;;;;;;;;;4864221;28;20085;-71
2023/06/14 07:12:35;;;;;;;5.53;2.47;;;;;;;;;;4881408;28;20119;-74
2023/06/14 07:15:01;;;;;;;5.60;2.28;;;;;;;;;;4865002;28;20041;-71
2023/06/14 07:17:26;;;;;;;6.97;3.03;;;;;;;;;;4865918;28;20108;-73
2023/06/14 07:19:53;;;;;;;8.38;2.67;;;;;;;;;;4879338;28;20529;-72
2023/06/14 07:22:18;;;;;;;5.57;2.90;;;;;;;;;;4866868;28;20037;-73
2023/06/14 07:24:43;;;;;;;7.72;3.00;;;;;;;;;;4878921;28;20049;-71
2023/06/14 07:27:09;;;;;;;5.03;2.55;;;;;;;;;;4867195;28;22383;-74
2023/06/14 07:29:34;;;;;;;9.68;2.65;;;;;;;;;;4880544;28;20044;-74
2023/06/14 07:31:59;;;;;;;5.35;3.00;;;;;;;;;;4864485;28;20053;-68
2023/06/14 07:34:26;;;;;;;7.35;3.20;;;;;;;;;;4863723;28;20068;-67
2023/06/14 07:36:54;;;;;;;5.10;2.70;;;;;;;;;;4864283;28;20045;-66
2023/06/14 07:39:19;;;;;;;6.65;3.25;;;;;;;;;;4864913;28;20051;-68
2023/06/14 07:41:45;;;;;;;5.97;2.92;;;;;;;;;;4864518;28;20036;-68
2023/06/14 07:44:10;;;;;;;9.80;2.55;;;;;;;;;;4864782;28;20220;-68
2023/06/14 07:46:35;;;;;;;7.50;2.40;;;;;;;;;;4863902;28;20152;-68
2023/06/14 07:49:01;;;;;;;5.65;2.50;;;;;;;;;;4862547;28;20049;-67
2023/06/14 07:51:26;;;;;;;6.38;2.38;;;;;;;;;;4860755;28;20042;-68
2023/06/14 07:53:51;;;;;;;7.72;2.90;;;;;;;;;;4877139;28;20111;-68
2023/06/14 07:56:17;;;;;;;6.32;2.50;;;;;;;;;;4863334;28;20127;-68
2023/06/14 07:58:42;;;;;;;8.27;2.42;;;;;;;;;;4876398;28;20123;-68
2023/06/14 08:01:08;;;;;;;6.35;2.40;;;;;;;;;;4863339;29;20726;-68
2023/06/14 08:03:34;;;;;;;7.15;2.47;;;;;;;;;;4861299;28;20191;-67
2023/06/14 08:06:01;;;;;;;7.18;2.92;;;;;;;;;;4862919;28;20032;-68
2023/06/14 08:08:27;;;;;;;7.25;2.67;;;;;;;;;;4878663;28;20706;-70
2023/06/14 08:10:55;;;;;;;6.20;2.63;;;;;;;;;;4859474;28;20640;-69
2023/06/14 08:13:20;;;;;;;12.93;2.70;;;;;;;;;;4875947;28;20068;-69
2023/06/14 08:15:45;;;;;;;4.28;2.42;;;;;;;;;;4860427;28;20615;-68
2023/06/14 08:18:10;;;;;;;7.03;2.67;;;;;;;;;;4860455;28;20040;-68
2023/06/14 08:20:38;;;;;;;7.45;2.40;;;;;;;;;;4859187;28;20151;-69
2023/06/14 08:23:04;;;;;;;9.60;2.58;;;;;;;;;;4861043;28;20033;-68
2023/06/14 08:25:31;;;;;;;9.73;2.72;;;;;;;;;;4862923;28;20033;-67
2023/06/14 08:27:57;;;;;;;8.00;2.75;;;;;;;;;;4860077;28;20506;-68
2023/06/14 08:30:22;;;;;;;11.25;2.63;;;;;;;;;;4860118;28;20080;-69
2023/06/14 08:32:48;;;;;;;7.55;2.75;;;;;;;;;;4862960;28;20049;-68
2023/06/14 08:35:13;;;;;;;8.85;2.55;;;;;;;;;;4875630;28;20532;-68
2023/06/14 08:37:42;;;;;;;7.28;2.80;;;;;;;;;;4860745;28;21721;-68
2023/06/14 08:40:21;;;;;;;3.97;2.50;;;;;;;;;;4861479;28;20044;-68
2023/06/14 08:42:53;;;;;;;7.82;3.50;;;;;;;;;;4855266;28;20646;-68
2023/06/14 08:45:20;;;;;;;7.28;2.90;;;;;;;;;;4860770;28;20040;-67
2023/06/14 08:47:46;;;;;;;11.48;3.22;;;;;;;;;;4863561;28;20660;-66
2023/06/14 08:50:11;;;;;;;4.05;2.67;;;;;;;;;;4861973;28;20044;-69
2023/06/14 08:52:40;;;;;;;8.80;2.80;;;;;;;;;;4860170;28;20049;-70
2023/06/14 08:55:06;;;;;;;11.15;2.67;;;;;;;;;;4862000;28;20132;-72
2023/06/14 08:57:33;;;;;;;7.28;2.55;;;;;;;;;;4861877;28;20032;-73
2023/06/14 09:00:04;;;;;;;8.10;2.33;;;;;;;;;;4863845;28;20089;-73
2023/06/14 09:02:35;;;;;;;9.70;2.80;;;;;;;;;;4846029;28;20047;-73
2023/06/14 09:05:00;;;;;;;6.40;2.30;;;;;;;;;;4864028;28;20036;-73
2023/06/14 09:07:26;;;;;;;6.57;2.22;;;;;;;;;;4862671;28;20525;-72
2023/06/14 09:10:07;;;;;;;6.95;2.20;;;;;;;;;;4861297;28;20203;-72
2023/06/14 09:12:36;;;;;;;6.40;2.65;;;;;;;;;;4878350;28;20040;-71
2023/06/14 09:15:06;;;;;;;7.10;2.35;;;;;;;;;;4876970;28;20051;-71
2023/06/14 09:17:36;;;;;;;6.70;2.50;;;;;;;;;;4862501;28;20045;-71
2023/06/14 09:20:17;;;;;;;7.20;2.33;;;;;;;;;;4862631;28;20087;-69
2023/06/14 09:22:45;;;;;;;4.65;2.25;;;;;;;;;;4864374;28;20040;-71
2023/06/14 09:25:15;;;;;;;6.22;2.30;;;;;;;;;;4861051;28;20033;-71
2023/06/14 09:27:41;;;;;;;7.22;2.58;;;;;;;;;;4878629;28;20761;-69
2023/06/14 09:30:09;;;;;;;5.65;2.22;;;;;;;;;;4863519;28;20777;-69
2023/06/14 09:32:39;;;;;;;8.65;2.13;;;;;;;;;;4864048;28;20421;-69
2023/06/14 09:35:06;;;;;;;6.45;2.22;;;;;;;;;;4866785;28;20122;-70
2023/06/14 09:37:33;;;;;;;4.55;2.03;;;;;;;;;;4881711;28;20050;-71
2023/06/14 09:39:59;;;;;;;4.90;2.05;;;;;;;;;;4863535;28;20044;-71
2023/06/14 09:42:25;;;;;;;5.82;2.22;;;;;;;;;;4882390;28;20056;-70
2023/06/14 09:44:52;;;;;;;5.28;2.17;;;;;;;;;;4865314;28;20045;-70
2023/06/14 09:47:18;;;;;;;5.85;1.92;;;;;;;;;;4864857;28;20099;-70
2023/06/14 09:49:45;;;;;;;6.45;1.92;;;;;;;;;;4863586;28;20047;-71
2023/06/14 09:52:16;;;;;;;4.25;1.67;;;;;;;;;;4865892;28;20127;-69
2023/06/14 09:54:48;;;;;;;4.80;1.77;;;;;;;;;;4845941;28;20130;-71
2023/06/14 09:57:15;;;;;;;6.90;1.85;;;;;;;;;;4879583;28;20497;-71
2023/06/14 09:59:45;;;;;;;5.78;2.03;;;;;;;;;;4868143;28;23623;-70
2023/06/14 10:02:17;;;;;;;4.88;1.60;;;;;;;;;;4880291;28;20040;-68
2023/06/14 10:04:46;;;;;;;6.20;1.90;;;;;;;;;;4866714;28;20199;-67
2023/06/14 10:07:19;;;;;;;1.95;1.50;;;;;;;;;;4864966;28;20055;-70
2023/06/14 10:09:49;;;;;;;4.15;1.75;;;;;;;;;;4863600;28;20154;-71
2023/06/14 10:12:20;;;;;;;4.28;1.90;;;;;;;;;;4861590;28;20099;-70
2023/06/14 10:14:47;;;;;;;4.90;1.80;;;;;;;;;;4864131;28;20048;-70
2023/06/14 10:17:17;;;;;;;7.50;2.13;;;;;;;;;;4865077;28;20044;-70
2023/06/14 10:19:53;;;;;;;4.50;1.75;;;;;;;;;;4863719;28;20063;-68
2023/06/14 10:22:22;;;;;;;4.07;1.88;;;;;;;;;;4863922;28;20509;-69
2023/06/14 10:24:50;;;;;;;3.15;1.77;;;;;;;;;;4864462;28;20079;-70
2023/06/14 10:27:23;;;;;;;4.68;1.50;;;;;;;;;;4861687;28;20071;-67
2023/06/14 10:29:57;;;;;;;4.15;1.73;;;;;;;;;;4864859;28;20032;-68
2023/06/14 10:32:27;;;;;;;4.18;1.73;;;;;;;;;;4847151;28;20057;-69
2023/06/14 10:34:53;;;;;;;5.38;1.85;;;;;;;;;;4880599;28;20048;-70
2023/06/14 10:37:24;;;;;;;5.25;1.80;;;;;;;;;;4865025;28;20044;-66
2023/06/14 10:39:53;;;;;;;4.20;1.67;;;;;;;;;;4864726;28;20044;-68
2023/06/14 10:42:19;;;;;;;4.88;1.73;;;;;;;;;;4865502;28;20852;-67
2023/06/14 10:44:51;;;;;;;4.47;1.55;;;;;;;;;;4864078;28;20744;-68
2023/06/14 10:47:24;;;;;;;5.38;1.60;;;;;;;;;;4863143;28;20545;-69
2023/06/14 10:49:52;;;;;;;6.07;1.70;;;;;;;;;;4861555;28;20037;-69
2023/06/14 10:52:23;;;;;;;3.03;1.60;;;;;;;;;;4924505;28;20643;-68
2023/06/14 10:55:04;;;;;;;7.93;1.80;;;;;;;;;;4863306;28;20069;-70
2023/06/14 10:57:32;;;;;;;4.43;1.70;;;;;;;;;;4860559;28;20099;-71
2023/06/14 11:00:00;;;;;;;4.05;1.77;;;;;;;;;;4861665;28;20045;-69
2023/06/14 11:02:45;;;;;;;3.85;1.73;;;;;;;;;;4862879;28;20675;-69
2023/06/14 11:05:14;;;;;;;3.65;1.70;;;;;;;;;;4860750;28;20047;-69
2023/06/14 11:08:06;;;;;;;4.22;1.77;;;;;;;;;;4862151;28;20044;-67
2023/06/14 11:10:38;;;;;;;3.72;1.90;;;;;;;;;;4871362;28;20128;-68
2023/06/14 11:13:03;;;;;;;3.85;1.70;;;;;;;;;;4873467;28;20065;-69
2023/06/14 11:15:32;;;;;;;2.80;1.70;;;;;;;;;;4843262;28;20047;-69
2023/06/14 11:18:00;;;;;;;5.70;1.67;;;;;;;;;;4827012;28;20070;-67
2023/06/14 11:20:29;;;;;;;4.22;1.90;;;;;;;;;;4851452;28;20731;-68
2023/06/14 11:22:54;;;;;;;4.90;1.77;;;;;;;;;;4846206;28;20153;-71
2023/06/14 11:25:20;;;;;;;9.63;1.90;;;;;;;;;;4855060;28;20095;-69
2023/06/14 11:27:45;;;;;;;3.40;2.08;;;;;;;;;;4842103;28;20053;-69
2023/06/14 11:30:11;;;;;;;3.97;1.60;;;;;;;;;;4848363;28;20037;-69
2023/06/14 11:32:36;;;;;;;4.30;1.52;;;;;;;;;;4842114;28;20045;-66
2023/06/14 11:35:02;;;;;;;4.13;1.55;;;;;;;;;;4831348;28;20044;-68
2023/06/14 11:37:28;;;;;;;4.65;1.67;;;;;;;;;;4846045;28;20076;-70
2023/06/14 11:39:59;;;;;;;4.60;1.73;;;;;;;;;;4845057;28;20061;-68
2023/06/14 11:42:26;;;;;;;9.68;1.50;;;;;;;;;;4845991;28;20111;-70
2023/06/14 11:44:52;;;;;;;7.10;1.58;;;;;;;;;;4843458;28;20120;-68
2023/06/14 11:47:18;;;;;;;3.58;1.88;;;;;;;;;;4839189;28;20558;-68
2023/06/14 11:49:43;;;;;;;4.88;1.63;;;;;;;;;;4901990;28;20041;-70
2023/06/14 11:52:11;;;;;;;3.83;1.35;;;;;;;;;;4829064;29;21711;-70
2023/06/14 11:54:37;;;;;;;5.05;1.63;;;;;;;;;;4828358;28;20060;-69
2023/06/14 11:57:02;;;;;;;6.65;1.70;;;;;;;;;;4878792;28;20046;-69
2023/06/14 11:59:28;;;;;;;5.97;1.50;;;;;;;;;;4859523;28;20047;-68
2023/06/14 12:01:56;;;;;;;7.07;1.60;;;;;;;;;;4843125;28;20049;-69
2023/06/14 12:04:26;;;;;;;3.70;1.60;;;;;;;;;;4861637;28;20035;-70
2023/06/14 12:06:53;;;;;;;3.77;1.60;;;;;;;;;;4859499;28;20609;-70
2023/06/14 12:09:19;;;;;;;6.22;2.20;;;;;;;;;;4846193;28;21061;-69
2023/06/14 12:11:44;;;;;;;7.60;1.50;;;;;;;;;;4846533;28;20087;-69
2023/06/14 12:14:10;;;;;;;3.53;1.55;;;;;;;;;;4844715;28;20041;-71
2023/06/14 12:16:37;;;;;;;8.18;1.52;;;;;;;;;;4840584;28;20039;-68
2023/06/14 12:19:10;;;;;;;5.35;1.50;;;;;;;;;;4840396;28;20049;-70
2023/06/14 12:21:38;;;;;;;3.28;1.55;;;;;;;;;;4856767;28;20037;-69
2023/06/14 12:24:04;;;;;;;4.57;1.55;;;;;;;;;;4854455;28;20318;-69
2023/06/14 12:26:29;;;;;;;5.18;1.83;;;;;;;;;;4822980;29;20115;-68
2023/06/14 12:28:54;;;;;;;3.65;1.52;;;;;;;;;;4840834;28;20037;-69
2023/06/14 12:31:19;;;;;;;4.80;1.70;;;;;;;;;;4836937;28;20045;-68
2023/06/14 12:33:51;;;;;;;9.30;1.80;;;;;;;;;;4857918;28;20049;-70
2023/06/14 12:36:17;;;;;;;3.53;1.50;;;;;;;;;;4844977;28;20044;-68
2023/06/14 12:38:42;;;;;;;4.80;1.55;;;;;;;;;;4855301;28;20045;-70
2023/06/14 12:41:08;;;;;;;2.90;1.55;;;;;;;;;;4854135;28;20063;-71
2023/06/14 12:43:35;;;;;;;3.03;1.60;;;;;;;;;;4816028;29;20033;-68
2023/06/14 12:46:00;;;;;;;5.20;1.60;;;;;;;;;;4830682;28;20049;-69
2023/06/14 12:48:30;;;;;;;4.03;1.60;;;;;;;;;;4836718;28;20116;-69
2023/06/14 12:50:58;;;;;;;11.00;1.77;;;;;;;;;;4842020;28;20048;-68
2023/06/14 12:53:24;;;;;;;7.88;1.60;;;;;;;;;;4889367;28;21062;-70
2023/06/14 12:55:49;;;;;;;4.13;1.30;;;;;;;;;;4872480;28;20045;-66
2023/06/14 12:58:16;;;;;;;5.40;1.48;;;;;;;;;;4868189;28;20296;-69
2023/06/14 13:00:42;;;;;;;5.55;1.30;;;;;;;;;;4872253;28;20037;-67
2023/06/14 13:03:07;;;;;;;3.25;1.33;;;;;;;;;;4846698;28;20049;-70
2023/06/14 13:05:33;;;;;;;3.40;1.42;;;;;;;;;;4920332;28;20045;-68
2023/06/14 13:07:58;;;;;;;3.65;1.58;;;;;;;;;;4844818;28;20069;-69
2023/06/14 13:10:24;;;;;;;5.00;1.35;;;;;;;;;;4859834;28;20510;-68
2023/06/14 13:12:49;;;;;;;3.28;1.90;;;;;;;;;;4844698;28;20072;-69
2023/06/14 13:15:15;;;;;;;3.97;1.50;;;;;;;;;;4848812;28;20144;-70
2023/06/14 13:17:41;;;;;;;6.88;1.70;;;;;;;;;;4853115;28;20046;-70
2023/06/14 13:20:08;;;;;;;4.63;1.40;;;;;;;;;;4874441;28;20037;-70
2023/06/14 13:22:36;;;;;;;3.08;1.40;;;;;;;;;;4843820;28;20050;-69
2023/06/14 13:25:02;;;;;;;3.80;1.65;;;;;;;;;;4843728;28;20041;-71
2023/06/14 13:27:27;;;;;;;4.97;1.63;;;;;;;;;;4845147;28;20110;-69
2023/06/14 13:29:55;;;;;;;3.53;1.40;;;;;;;;;;4878500;28;20127;-69
2023/06/14 13:32:23;;;;;;;4.75;1.40;;;;;;;;;;4902331;28;20048;-71
2023/06/14 13:34:50;;;;;;;3.63;1.40;;;;;;;;;;4845840;28;22107;-66
2023/06/14 13:37:18;;;;;;;4.57;2.30;;;;;;;;;;4861428;28;20088;-67
2023/06/14 13:39:43;;;;;;;5.72;2.00;;;;;;;;;;4847206;28;20060;-68
2023/06/14 13:42:13;;;;;;;5.32;2.22;;;;;;;;;;4841039;28;20107;-67
2023/06/14 13:44:39;;;;;;;4.80;1.55;;;;;;;;;;4895807;28;20046;-67
2023/06/14 13:47:04;;;;;;;4.55;1.50;;;;;;;;;;4876809;28;20042;-67
2023/06/14 13:49:30;;;;;;;3.22;1.60;;;;;;;;;;4871449;28;20072;-68
2023/06/14 13:51:56;;;;;;;7.53;1.40;;;;;;;;;;4840898;28;20048;-68
2023/06/14 13:54:21;;;;;;;4.82;1.55;;;;;;;;;;4831778;28;20116;-68
2023/06/14 13:56:46;;;;;;;8.43;1.40;;;;;;;;;;4904241;28;20084;-67
2023/06/14 13:59:12;;;;;;;6.70;1.50;;;;;;;;;;4847799;28;20049;-67
2023/06/14 14:01:37;;;;;;;4.85;1.48;;;;;;;;;;4842188;28;20040;-67
2023/06/14 14:04:03;;;;;;;7.03;1.77;;;;;;;;;;4830641;28;20043;-68
2023/06/14 14:06:28;;;;;;;5.95;1.90;;;;;;;;;;4878843;28;20029;-68
2023/06/14 14:08:53;;;;;;;4.25;1.40;;;;;;;;;;4834859;28;20403;-68
2023/06/14 14:11:20;;;;;;;3.00;1.55;;;;;;;;;;4875780;28;20043;-68
2023/06/14 14:13:46;;;;;;;4.32;2.05;;;;;;;;;;4849218;28;20152;-69
2023/06/14 14:16:14;;;;;;;5.22;1.42;;;;;;;;;;4841010;28;20078;-68
2023/06/14 14:18:42;;;;;;;4.82;1.50;;;;;;;;;;4876178;28;20057;-67
2023/06/14 14:21:07;;;;;;;4.85;1.30;;;;;;;;;;4848980;28;20472;-68
2023/06/14 14:23:36;;;;;;;3.60;1.25;;;;;;;;;;4877100;28;20091;-67
2023/06/14 14:26:03;;;;;;;3.50;1.30;;;;;;;;;;4908907;28;20157;-68
2023/06/14 14:28:29;;;;;;;4.82;1.50;;;;;;;;;;4900724;28;20037;-67
2023/06/14 14:30:54;;;;;;;6.50;1.20;;;;;;;;;;4841216;28;20045;-69
2023/06/14 14:33:20;;;;;;;5.03;1.58;;;;;;;;;;4842842;28;20096;-66
2023/06/14 14:35:45;;;;;;;2.55;1.30;;;;;;;;;;4843811;28;20076;-67
2023/06/14 14:38:11;;;;;;;5.00;1.40;;;;;;;;;;4848365;28;20877;-67